sensor_id;sensor_type;location;lat;lon;timestamp;pressure;altitude;pressure_sealevel;temperature;humidity
21980;BME280;11154;48.558;9.234;2023-03-13T00:01:30;97066.59;;;12.31;70.92
21980;BME280;11154;48.558;9.234;2023-03-13T00:03:31;97066.41;;;12.32;70.51
21980;BME280;11154;48.558;9.234;2023-03-13T00:05:34;97063.75;;;12.32;70.79
21980;BME280;11154;48.558;9.234;2023-03-13T00:07:36;97060.91;;;12.34;70.51
21980;BME280;11154;48.558;9.234;2023-03-13T00:09:40;97068.34;;;12.38;70.31
21980;BME280;11154;48.558;9.234;2023-03-13T00:11:41;97060.97;;;12.40;70.33
21980;BME280;11154;48.558;9.234;2023-03-13T00:13:43;97061.63;;;12.42;70.12
21980;BME280;11154;48.558;9.234;2023-03-13T00:15:45;97049.56;;;12.46;69.97
21980;BME280;11154;48.558;9.234;2023-03-13T00:17:47;97057.47;;;12.54;69.31
21980;BME280;11154;48.558;9.234;2023-03-13T00:19:49;97055.09;;;12.59;68.81
21980;BME280;11154;48.558;9.234;2023-03-13T00:21:50;97044.72;;;12.64;68.82
21980;BME280;11154;48.558;9.234;2023-03-13T00:23:53;97048.66;;;12.68;68.44
21980;BME280;11154;48.558;9.234;2023-03-13T00:25:57;97042.97;;;12.71;67.95
21980;BME280;11154;48.558;9.234;2023-03-13T00:27:59;97034.56;;;12.74;67.96
21980;BME280;11154;48.558;9.234;2023-03-13T00:30:00;97042.00;;;12.79;67.50
21980;BME280;11154;48.558;9.234;2023-03-13T00:32:02;97033.63;;;12.82;67.25
21980;BME280;11154;48.558;9.234;2023-03-13T00:34:04;97041.91;;;12.87;66.90
21980;BME280;11154;48.558;9.234;2023-03-13T00:36:08;97041.19;;;12.93;67.02
21980;BME280;11154;48.558;9.234;2023-03-13T00:38:10;97050.56;;;12.89;66.56
21980;BME280;11154;48.558;9.234;2023-03-13T00:40:12;97057.19;;;12.78;67.34
21980;BME280;11154;48.558;9.234;2023-03-13T00:42:15;97050.31;;;12.69;67.69
21980;BME280;11154;48.558;9.234;2023-03-13T00:44:17;97059.06;;;12.63;68.63
21980;BME280;11154;48.558;9.234;2023-03-13T00:46:21;97053.44;;;12.58;68.58
21980;BME280;11154;48.558;9.234;2023-03-13T00:48:23;97051.16;;;12.55;68.51
21980;BME280;11154;48.558;9.234;2023-03-13T00:50:25;97051.16;;;12.55;68.44
21980;BME280;11154;48.558;9.234;2023-03-13T00:52:26;97043.06;;;12.63;68.46
21980;BME280;11154;48.558;9.234;2023-03-13T00:54:28;97039.63;;;12.69;68.09
21980;BME280;11154;48.558;9.234;2023-03-13T00:56:30;97048.56;;;12.76;67.77
21980;BME280;11154;48.558;9.234;2023-03-13T00:58:35;97036.47;;;12.80;67.92
21980;BME280;11154;48.558;9.234;2023-03-13T01:00:37;97042.28;;;12.84;67.55
21980;BME280;11154;48.558;9.234;2023-03-13T01:02:40;97039.09;;;12.88;67.33
21980;BME280;11154;48.558;9.234;2023-03-13T01:04:42;97033.56;;;12.90;67.33
21980;BME280;11154;48.558;9.234;2023-03-13T01:06:44;97017.78;;;12.95;67.25
21980;BME280;11154;48.558;9.234;2023-03-13T01:08:46;97028.94;;;12.98;66.54
21980;BME280;11154;48.558;9.234;2023-03-13T01:10:47;97027.56;;;13.02;66.66
21980;BME280;11154;48.558;9.234;2023-03-13T01:12:49;97019.16;;;13.05;66.47
21980;BME280;11154;48.558;9.234;2023-03-13T01:14:52;97015.28;;;13.07;66.28
21980;BME280;11154;48.558;9.234;2023-03-13T01:16:54;97015.94;;;13.09;66.24
21980;BME280;11154;48.558;9.234;2023-03-13T01:18:58;97004.59;;;13.07;66.09
21980;BME280;11154;48.558;9.234;2023-03-13T01:21:01;96995.78;;;13.07;66.15
21980;BME280;11154;48.558;9.234;2023-03-13T01:23:02;96985.75;;;13.09;66.03
21980;BME280;11154;48.558;9.234;2023-03-13T01:25:05;96990.03;;;13.10;66.00
21980;BME280;11154;48.558;9.234;2023-03-13T01:27:07;96992.56;;;13.11;65.87
21980;BME280;11154;48.558;9.234;2023-03-13T01:29:09;96988.88;;;13.12;66.03
21980;BME280;11154;48.558;9.234;2023-03-13T01:31:13;96984.34;;;13.13;65.87
21980;BME280;11154;48.558;9.234;2023-03-13T01:33:15;96974.03;;;13.10;66.01
21980;BME280;11154;48.558;9.234;2023-03-13T01:35:17;96978.31;;;13.04;66.07
21980;BME280;11154;48.558;9.234;2023-03-13T01:37:18;96979.22;;;12.97;66.78
21980;BME280;11154;48.558;9.234;2023-03-13T01:39:20;96980.53;;;13.01;66.11
21980;BME280;11154;48.558;9.234;2023-03-13T01:41:22;96972.63;;;12.93;66.59
21980;BME280;11154;48.558;9.234;2023-03-13T01:43:26;96969.72;;;12.88;66.47
21980;BME280;11154;48.558;9.234;2023-03-13T01:45:49;96971.94;;;12.70;66.81
21980;BME280;11154;48.558;9.234;2023-03-13T01:47:52;96966.72;;;12.62;67.96
21980;BME280;11154;48.558;9.234;2023-03-13T01:49:54;96953.38;;;12.62;67.99
21980;BME280;11154;48.558;9.234;2023-03-13T01:51:58;96955.03;;;12.63;68.57
21980;BME280;11154;48.558;9.234;2023-03-13T01:54:07;96945.72;;;12.74;68.37
21980;BME280;11154;48.558;9.234;2023-03-13T01:56:13;96941.69;;;12.84;67.95
21980;BME280;11154;48.558;9.234;2023-03-13T01:58:17;96943.28;;;12.93;67.56
21980;BME280;11154;48.558;9.234;2023-03-13T02:00:22;96937.81;;;13.01;67.35
21980;BME280;11154;48.558;9.234;2023-03-13T02:02:25;96934.38;;;13.07;67.11
21980;BME280;11154;48.558;9.234;2023-03-13T02:04:30;96887.47;;;11.92;71.72
21980;BME280;11154;48.558;9.234;2023-03-13T02:06:37;96886.63;;;11.48;75.25
21980;BME280;11154;48.558;9.234;2023-03-13T02:08:45;96875.50;;;11.45;76.80
21980;BME280;11154;48.558;9.234;2023-03-13T02:10:53;96879.28;;;11.50;77.28
21980;BME280;11154;48.558;9.234;2023-03-13T02:12:59;96873.69;;;11.46;77.55
21980;BME280;11154;48.558;9.234;2023-03-13T02:15:05;96870.84;;;11.47;78.25
21980;BME280;11154;48.558;9.234;2023-03-13T02:17:08;96868.38;;;11.46;78.85
21980;BME280;11154;48.558;9.234;2023-03-13T02:19:17;96880.13;;;11.00;78.78
21980;BME280;11154;48.558;9.234;2023-03-13T02:21:29;96873.59;;;10.66;81.62
21980;BME280;11154;48.558;9.234;2023-03-13T02:23:43;96872.25;;;10.39;82.39
21980;BME280;11154;48.558;9.234;2023-03-13T02:25:48;96867.81;;;10.09;83.79
21980;BME280;11154;48.558;9.234;2023-03-13T02:27:53;96876.97;;;9.99;85.96
21980;BME280;11154;48.558;9.234;2023-03-13T02:29:57;96870.97;;;10.05;86.72
21980;BME280;11154;48.558;9.234;2023-03-13T02:31:59;96871.94;;;10.12;86.99
21980;BME280;11154;48.558;9.234;2023-03-13T02:34:01;96867.59;;;10.19;86.83
21980;BME280;11154;48.558;9.234;2023-03-13T02:36:05;96871.84;;;10.28;86.38
21980;BME280;11154;48.558;9.234;2023-03-13T02:38:09;96869.84;;;10.30;86.33
21980;BME280;11154;48.558;9.234;2023-03-13T02:40:14;96860.88;;;10.31;85.86
21980;BME280;11154;48.558;9.234;2023-03-13T02:42:20;96846.25;;;10.35;86.32
21980;BME280;11154;48.558;9.234;2023-03-13T02:44:22;96851.84;;;10.40;86.13
21980;BME280;11154;48.558;9.234;2023-03-13T02:46:24;96850.47;;;10.44;86.08
21980;BME280;11154;48.558;9.234;2023-03-13T02:48:31;96854.69;;;10.61;85.53
21980;BME280;11154;48.558;9.234;2023-03-13T02:50:34;96849.75;;;10.72;85.55
21980;BME280;11154;48.558;9.234;2023-03-13T02:52:40;96845.28;;;10.73;85.16
21980;BME280;11154;48.558;9.234;2023-03-13T02:54:44;96826.97;;;10.77;85.82
21980;BME280;11154;48.558;9.234;2023-03-13T02:56:50;96826.38;;;10.90;86.42
21980;BME280;11154;48.558;9.234;2023-03-13T02:58:55;96813.91;;;11.19;86.43
21980;BME280;11154;48.558;9.234;2023-03-13T03:00:57;96812.63;;;11.30;85.53
21980;BME280;11154;48.558;9.234;2023-03-13T03:03:06;96818.88;;;11.22;85.43
21980;BME280;11154;48.558;9.234;2023-03-13T03:05:08;96814.38;;;11.23;86.20
21980;BME280;11154;48.558;9.234;2023-03-13T03:07:10;96810.81;;;11.30;85.84
21980;BME280;11154;48.558;9.234;2023-03-13T03:09:12;96811.16;;;11.13;84.58
21980;BME280;11154;48.558;9.234;2023-03-13T03:11:13;96810.78;;;11.16;85.50
21980;BME280;11154;48.558;9.234;2023-03-13T03:13:15;96798.50;;;11.29;86.25
21980;BME280;11154;48.558;9.234;2023-03-13T03:15:19;96787.03;;;11.29;85.85
21980;BME280;11154;48.558;9.234;2023-03-13T03:17:22;96785.56;;;11.26;86.15
21980;BME280;11154;48.558;9.234;2023-03-13T03:19:23;96789.41;;;11.38;86.44
21980;BME280;11154;48.558;9.234;2023-03-13T03:21:25;96775.31;;;11.52;86.37
21980;BME280;11154;48.558;9.234;2023-03-13T03:23:27;96772.53;;;11.60;85.72
21980;BME280;11154;48.558;9.234;2023-03-13T03:25:28;96783.00;;;11.76;85.00
21980;BME280;11154;48.558;9.234;2023-03-13T03:27:30;96782.75;;;11.92;84.99
21980;BME280;11154;48.558;9.234;2023-03-13T03:29:32;96766.03;;;11.98;85.00
21980;BME280;11154;48.558;9.234;2023-03-13T03:31:35;96756.63;;;12.02;84.91
21980;BME280;11154;48.558;9.234;2023-03-13T03:33:37;96746.88;;;12.09;84.74
21980;BME280;11154;48.558;9.234;2023-03-13T03:35:39;96743.72;;;12.20;84.58
21980;BME280;11154;48.558;9.234;2023-03-13T03:37:41;96754.38;;;12.20;83.89
21980;BME280;11154;48.558;9.234;2023-03-13T03:39:42;96748.78;;;12.15;83.50
21980;BME280;11154;48.558;9.234;2023-03-13T03:41:44;96742.31;;;12.03;80.81
21980;BME280;11154;48.558;9.234;2023-03-13T03:43:46;96757.31;;;12.24;82.63
21980;BME280;11154;48.558;9.234;2023-03-13T03:45:48;96758.50;;;12.22;82.73
21980;BME280;11154;48.558;9.234;2023-03-13T03:47:51;96757.53;;;12.29;83.95
21980;BME280;11154;48.558;9.234;2023-03-13T03:49:53;96760.00;;;12.31;84.58
21980;BME280;11154;48.558;9.234;2023-03-13T03:51:54;96770.22;;;12.27;84.39
21980;BME280;11154;48.558;9.234;2023-03-13T03:53:56;96768.41;;;12.28;85.25
21980;BME280;11154;48.558;9.234;2023-03-13T03:55:58;96769.66;;;12.32;85.11
21980;BME280;11154;48.558;9.234;2023-03-13T03:58:00;96767.69;;;12.40;84.76
21980;BME280;11154;48.558;9.234;2023-03-13T04:00:02;96764.84;;;12.42;85.01
21980;BME280;11154;48.558;9.234;2023-03-13T04:02:07;96800.06;;;13.00;82.57
21980;BME280;11154;48.558;9.234;2023-03-13T04:04:10;96794.69;;;13.27;80.57
21980;BME280;11154;48.558;9.234;2023-03-13T04:06:11;96803.88;;;13.46;79.45
21980;BME280;11154;48.558;9.234;2023-03-13T04:08:13;96806.63;;;13.59;78.44
21980;BME280;11154;48.558;9.234;2023-03-13T04:10:15;96799.91;;;13.69;78.19
21980;BME280;11154;48.558;9.234;2023-03-13T04:12:17;96802.19;;;13.78;77.42
21980;BME280;11154;48.558;9.234;2023-03-13T04:14:18;96795.03;;;13.85;77.04
21980;BME280;11154;48.558;9.234;2023-03-13T04:16:20;96798.75;;;13.91;76.89
21980;BME280;11154;48.558;9.234;2023-03-13T04:18:22;96794.47;;;13.96;76.54
21980;BME280;11154;48.558;9.234;2023-03-13T04:20:25;96801.69;;;14.02;76.60
21980;BME280;11154;48.558;9.234;2023-03-13T04:22:28;96796.75;;;14.06;76.20
21980;BME280;11154;48.558;9.234;2023-03-13T04:24:29;96798.88;;;14.10;76.20
21980;BME280;11154;48.558;9.234;2023-03-13T04:26:31;96793.09;;;14.13;76.21
21980;BME280;11154;48.558;9.234;2023-03-13T04:28:32;96795.19;;;14.18;75.99
21980;BME280;11154;48.558;9.234;2023-03-13T04:30:34;96788.59;;;14.20;75.74
21980;BME280;11154;48.558;9.234;2023-03-13T04:32:36;96777.91;;;14.20;75.77
21980;BME280;11154;48.558;9.234;2023-03-13T04:34:37;96787.38;;;14.23;75.58
21980;BME280;11154;48.558;9.234;2023-03-13T04:36:40;96783.28;;;14.27;75.66
21980;BME280;11154;48.558;9.234;2023-03-13T04:38:42;96771.53;;;14.28;75.49
21980;BME280;11154;48.558;9.234;2023-03-13T04:40:44;96764.16;;;14.30;75.36
21980;BME280;11154;48.558;9.234;2023-03-13T04:42:47;96756.53;;;14.33;75.14
21980;BME280;11154;48.558;9.234;2023-03-13T04:44:48;96759.22;;;14.33;74.48
21980;BME280;11154;48.558;9.234;2023-03-13T04:46:50;96769.09;;;14.33;74.49
21980;BME280;11154;48.558;9.234;2023-03-13T04:48:52;96766.22;;;14.34;74.44
21980;BME280;11154;48.558;9.234;2023-03-13T04:50:53;96765.19;;;14.35;74.21
21980;BME280;11154;48.558;9.234;2023-03-13T04:52:56;96763.13;;;14.37;73.87
21980;BME280;11154;48.558;9.234;2023-03-13T04:54:58;96758.63;;;14.38;73.83
21980;BME280;11154;48.558;9.234;2023-03-13T04:56:59;96767.06;;;14.41;73.98
21980;BME280;11154;48.558;9.234;2023-03-13T04:59:01;96767.88;;;14.42;74.10
21980;BME280;11154;48.558;9.234;2023-03-13T05:01:03;96751.00;;;14.41;73.84
21980;BME280;11154;48.558;9.234;2023-03-13T05:03:05;96750.16;;;14.41;73.80
21980;BME280;11154;48.558;9.234;2023-03-13T05:05:07;96755.34;;;14.42;73.41
21980;BME280;11154;48.558;9.234;2023-03-13T05:07:08;96758.00;;;14.42;73.49
21980;BME280;11154;48.558;9.234;2023-03-13T05:09:11;96762.31;;;14.43;73.71
21980;BME280;11154;48.558;9.234;2023-03-13T05:11:13;96756.38;;;14.41;73.82
21980;BME280;11154;48.558;9.234;2023-03-13T05:13:15;96757.81;;;14.43;73.33
21980;BME280;11154;48.558;9.234;2023-03-13T05:15:16;96762.31;;;14.43;73.51
21980;BME280;11154;48.558;9.234;2023-03-13T05:17:18;96758.63;;;14.44;73.65
21980;BME280;11154;48.558;9.234;2023-03-13T05:19:20;96746.25;;;14.43;73.29
21980;BME280;11154;48.558;9.234;2023-03-13T05:21:21;96752.25;;;14.45;73.44
21980;BME280;11154;48.558;9.234;2023-03-13T05:23:23;96746.88;;;14.45;73.60
21980;BME280;11154;48.558;9.234;2023-03-13T05:25:26;96767.28;;;14.40;71.54
21980;BME280;11154;48.558;9.234;2023-03-13T05:27:28;96754.09;;;14.38;72.36
21980;BME280;11154;48.558;9.234;2023-03-13T05:29:29;96767.66;;;14.37;72.74
21980;BME280;11154;48.558;9.234;2023-03-13T05:31:31;96765.19;;;14.35;72.51
21980;BME280;11154;48.558;9.234;2023-03-13T05:33:33;96763.34;;;14.29;72.15
21980;BME280;11154;48.558;9.234;2023-03-13T05:35:34;96759.81;;;14.29;71.35
21980;BME280;11154;48.558;9.234;2023-03-13T05:37:36;96761.25;;;14.31;72.28
21980;BME280;11154;48.558;9.234;2023-03-13T05:39:38;96768.28;;;14.39;73.79
21980;BME280;11154;48.558;9.234;2023-03-13T05:41:41;96760.69;;;14.48;75.62
21980;BME280;11154;48.558;9.234;2023-03-13T05:43:42;96766.06;;;14.55;74.84
21980;BME280;11154;48.558;9.234;2023-03-13T05:45:44;96751.63;;;14.56;73.43
21980;BME280;11154;48.558;9.234;2023-03-13T05:47:46;96762.97;;;14.51;71.27
21980;BME280;11154;48.558;9.234;2023-03-13T05:49:47;96756.97;;;14.56;73.02
21980;BME280;11154;48.558;9.234;2023-03-13T05:51:49;96752.88;;;14.60;73.41
21980;BME280;11154;48.558;9.234;2023-03-13T05:53:51;96744.22;;;14.58;73.19
21980;BME280;11154;48.558;9.234;2023-03-13T05:55:52;96745.25;;;14.57;71.70
21980;BME280;11154;48.558;9.234;2023-03-13T05:57:55;96743.63;;;14.49;70.79
21980;BME280;11154;48.558;9.234;2023-03-13T05:59:57;96747.09;;;14.50;73.20
21980;BME280;11154;48.558;9.234;2023-03-13T06:01:58;96737.63;;;14.47;72.92
21980;BME280;11154;48.558;9.234;2023-03-13T06:04:00;96737.25;;;14.50;72.70
21980;BME280;11154;48.558;9.234;2023-03-13T06:06:02;96743.63;;;14.49;73.72
21980;BME280;11154;48.558;9.234;2023-03-13T06:08:04;96744.25;;;14.51;73.97
21980;BME280;11154;48.558;9.234;2023-03-13T06:10:07;96732.31;;;14.54;73.85
21980;BME280;11154;48.558;9.234;2023-03-13T06:12:11;96728.19;;;14.51;72.15
21980;BME280;11154;48.558;9.234;2023-03-13T06:14:14;96730.66;;;14.53;73.09
21980;BME280;11154;48.558;9.234;2023-03-13T06:16:16;96726.53;;;14.57;74.66
21980;BME280;11154;48.558;9.234;2023-03-13T06:18:18;96734.78;;;14.62;74.96
21980;BME280;11154;48.558;9.234;2023-03-13T06:20:19;96730.03;;;14.64;74.87
21980;BME280;11154;48.558;9.234;2023-03-13T06:22:21;96722.00;;;14.64;75.11
21980;BME280;11154;48.558;9.234;2023-03-13T06:24:23;96723.66;;;14.65;75.36
21980;BME280;11154;48.558;9.234;2023-03-13T06:26:25;96724.28;;;14.67;75.89
21980;BME280;11154;48.558;9.234;2023-03-13T06:28:26;96721.81;;;14.72;76.34
21980;BME280;11154;48.558;9.234;2023-03-13T06:30:29;96727.56;;;14.75;76.38
21980;BME280;11154;48.558;9.234;2023-03-13T06:32:31;96727.34;;;14.77;76.53
21980;BME280;11154;48.558;9.234;2023-03-13T06:34:33;96735.38;;;14.77;76.40
21980;BME280;11154;48.558;9.234;2023-03-13T06:36:35;96738.06;;;14.77;76.53
21980;BME280;11154;48.558;9.234;2023-03-13T06:38:36;96736.00;;;14.79;76.34
21980;BME280;11154;48.558;9.234;2023-03-13T06:40:38;96736.81;;;14.79;76.59
21980;BME280;11154;48.558;9.234;2023-03-13T06:42:40;96741.78;;;14.82;76.58
21980;BME280;11154;48.558;9.234;2023-03-13T06:44:41;96747.94;;;14.83;76.78
21980;BME280;11154;48.558;9.234;2023-03-13T06:46:45;96747.94;;;14.83;76.98
21980;BME280;11154;48.558;9.234;2023-03-13T06:48:47;96767.31;;;14.85;77.29
21980;BME280;11154;48.558;9.234;2023-03-13T06:50:48;96749.19;;;14.87;77.44
21980;BME280;11154;48.558;9.234;2023-03-13T06:52:50;96749.59;;;14.90;77.51
21980;BME280;11154;48.558;9.234;2023-03-13T06:54:52;96738.47;;;14.87;77.31
21980;BME280;11154;48.558;9.234;2023-03-13T06:56:54;96741.97;;;14.87;77.67
21980;BME280;11154;48.558;9.234;2023-03-13T06:58:55;96733.94;;;14.87;78.05
21980;BME280;11154;48.558;9.234;2023-03-13T07:00:57;96730.25;;;14.88;78.13
21980;BME280;11154;48.558;9.234;2023-03-13T07:03:00;96744.88;;;14.86;77.96
21980;BME280;11154;48.558;9.234;2023-03-13T07:05:02;96738.25;;;14.82;76.97
21980;BME280;11154;48.558;9.234;2023-03-13T07:07:05;96740.94;;;14.82;77.19
21980;BME280;11154;48.558;9.234;2023-03-13T07:09:06;96721.16;;;14.83;76.33
21980;BME280;11154;48.558;9.234;2023-03-13T07:11:10;96725.28;;;14.85;77.49
21980;BME280;11154;48.558;9.234;2023-03-13T07:13:12;96728.16;;;14.97;79.35
21980;BME280;11154;48.558;9.234;2023-03-13T07:15:13;96734.34;;;15.04;79.96
21980;BME280;11154;48.558;9.234;2023-03-13T07:17:15;96729.38;;;15.01;79.23
21980;BME280;11154;48.558;9.234;2023-03-13T07:19:18;96734.16;;;14.99;77.32
21980;BME280;11154;48.558;9.234;2023-03-13T07:21:20;96746.28;;;14.95;77.71
21980;BME280;11154;48.558;9.234;2023-03-13T07:23:23;96766.47;;;14.97;78.91
21980;BME280;11154;48.558;9.234;2023-03-13T07:25:25;96767.09;;;14.93;78.17
21980;BME280;11154;48.558;9.234;2023-03-13T07:27:26;96762.56;;;15.00;79.27
21980;BME280;11154;48.558;9.234;2023-03-13T07:29:28;96759.06;;;15.06;80.53
21980;BME280;11154;48.558;9.234;2023-03-13T07:31:29;96758.63;;;15.09;81.08
21980;BME280;11154;48.558;9.234;2023-03-13T07:33:33;96755.34;;;15.13;81.56
21980;BME280;11154;48.558;9.234;2023-03-13T07:35:36;96755.75;;;15.16;81.25
21980;BME280;11154;48.558;9.234;2023-03-13T07:37:38;96753.47;;;15.20;81.17
21980;BME280;11154;48.558;9.234;2023-03-13T07:39:40;96750.22;;;15.24;81.52
21980;BME280;11154;48.558;9.234;2023-03-13T07:41:42;96744.84;;;15.24;81.56
21980;BME280;11154;48.558;9.234;2023-03-13T07:43:44;96742.38;;;15.29;81.61
21980;BME280;11154;48.558;9.234;2023-03-13T07:45:53;96749.97;;;15.32;81.30
21980;BME280;11154;48.558;9.234;2023-03-13T07:47:55;96747.91;;;15.34;81.43
21980;BME280;11154;48.558;9.234;2023-03-13T07:49:57;96749.34;;;15.37;80.86
21980;BME280;11154;48.558;9.234;2023-03-13T07:52:00;96740.06;;;15.39;80.94
21980;BME280;11154;48.558;9.234;2023-03-13T07:54:01;96742.56;;;15.41;80.91
21980;BME280;11154;48.558;9.234;2023-03-13T07:56:05;96745.00;;;15.42;81.45
21980;BME280;11154;48.558;9.234;2023-03-13T07:58:07;96741.91;;;15.45;81.53
21980;BME280;11154;48.558;9.234;2023-03-13T08:00:09;96728.31;;;15.47;81.95
21980;BME280;11154;48.558;9.234;2023-03-13T08:02:15;96747.47;;;15.50;81.83
21980;BME280;11154;48.558;9.234;2023-03-13T08:04:17;96743.31;;;15.54;82.32
21980;BME280;11154;48.558;9.234;2023-03-13T08:06:20;96724.16;;;15.57;82.00
21980;BME280;11154;48.558;9.234;2023-03-13T08:08:24;96717.75;;;15.58;82.32
21980;BME280;11154;48.558;9.234;2023-03-13T08:10:25;96718.13;;;15.62;82.63
21980;BME280;11154;48.558;9.234;2023-03-13T08:12:27;96716.69;;;15.66;82.71
21980;BME280;11154;48.558;9.234;2023-03-13T08:14:28;96721.00;;;15.73;83.14
21980;BME280;11154;48.558;9.234;2023-03-13T08:16:31;96725.72;;;15.78;83.09
21980;BME280;11154;48.558;9.234;2023-03-13T08:18:35;96727.56;;;15.84;83.23
21980;BME280;11154;48.558;9.234;2023-03-13T08:20:37;96718.25;;;15.86;83.19
21980;BME280;11154;48.558;9.234;2023-03-13T08:22:39;96710.81;;;15.88;83.00
21980;BME280;11154;48.558;9.234;2023-03-13T08:24:42;96711.41;;;15.90;82.76
21980;BME280;11154;48.558;9.234;2023-03-13T08:26:43;96690.59;;;15.92;83.01
21980;BME280;11154;48.558;9.234;2023-03-13T08:28:47;96689.56;;;15.93;82.50
21980;BME280;11154;48.558;9.234;2023-03-13T08:30:48;96697.78;;;15.98;82.71
21980;BME280;11154;48.558;9.234;2023-03-13T08:32:50;96670.09;;;16.04;82.76
21980;BME280;11154;48.558;9.234;2023-03-13T08:34:52;96671.97;;;16.03;82.74
21980;BME280;11154;48.558;9.234;2023-03-13T08:36:54;96659.75;;;16.07;82.82
21980;BME280;11154;48.558;9.234;2023-03-13T08:38:58;96652.75;;;16.06;82.42
21980;BME280;11154;48.558;9.234;2023-03-13T08:41:01;96649.03;;;16.07;82.35
21980;BME280;11154;48.558;9.234;2023-03-13T08:43:03;96653.56;;;16.07;82.68
21980;BME280;11154;48.558;9.234;2023-03-13T08:45:06;96657.69;;;16.09;82.48
21980;BME280;11154;48.558;9.234;2023-03-13T08:47:08;96649.41;;;16.11;82.63
21980;BME280;11154;48.558;9.234;2023-03-13T08:49:10;96658.88;;;16.13;82.52
21980;BME280;11154;48.558;9.234;2023-03-13T08:51:13;96652.72;;;16.13;82.40
21980;BME280;11154;48.558;9.234;2023-03-13T08:53:15;96652.72;;;16.13;82.23
21980;BME280;11154;48.558;9.234;2023-03-13T08:55:17;96645.47;;;16.13;82.01
21980;BME280;11154;48.558;9.234;2023-03-13T08:57:20;96646.31;;;16.14;81.84
21980;BME280;11154;48.558;9.234;2023-03-13T08:59:22;96645.25;;;16.15;82.22
21980;BME280;11154;48.558;9.234;2023-03-13T09:01:26;96648.38;;;16.12;81.59
21980;BME280;11154;48.558;9.234;2023-03-13T09:03:28;96652.25;;;16.16;82.42
21980;BME280;11154;48.558;9.234;2023-03-13T09:05:30;96649.56;;;16.16;81.93
21980;BME280;11154;48.558;9.234;2023-03-13T09:07:31;96663.38;;;16.19;82.13
21980;BME280;11154;48.558;9.234;2023-03-13T09:09:33;96653.50;;;16.20;82.15
21980;BME280;11154;48.558;9.234;2023-03-13T09:11:36;96650.13;;;16.24;82.79
21980;BME280;11154;48.558;9.234;2023-03-13T09:13:41;96652.63;;;16.26;82.74
21980;BME280;11154;48.558;9.234;2023-03-13T09:15:43;96656.53;;;16.30;82.87
21980;BME280;11154;48.558;9.234;2023-03-13T09:17:45;96654.69;;;16.30;82.66
21980;BME280;11154;48.558;9.234;2023-03-13T09:19:47;96662.50;;;16.32;81.78
21980;BME280;11154;48.558;9.234;2023-03-13T09:21:48;96668.28;;;16.35;81.65
21980;BME280;11154;48.558;9.234;2023-03-13T09:23:50;96664.47;;;16.43;81.93
21980;BME280;11154;48.558;9.234;2023-03-13T09:25:54;96652.88;;;16.49;82.07
21980;BME280;11154;48.558;9.234;2023-03-13T09:27:56;96667.53;;;16.53;81.15
21980;BME280;11154;48.558;9.234;2023-03-13T09:29:59;96647.25;;;16.57;80.99
21980;BME280;11154;48.558;9.234;2023-03-13T09:32:00;96652.75;;;16.62;81.82
21980;BME280;11154;48.558;9.234;2023-03-13T09:34:03;96659.31;;;16.65;81.05
21980;BME280;11154;48.558;9.234;2023-03-13T09:36:05;96647.28;;;16.74;80.85
21980;BME280;11154;48.558;9.234;2023-03-13T09:38:07;96652.59;;;16.81;81.55
21980;BME280;11154;48.558;9.234;2023-03-13T09:40:13;96649.84;;;16.87;80.75
21980;BME280;11154;48.558;9.234;2023-03-13T09:42:17;96664.84;;;16.95;80.48
21980;BME280;11154;48.558;9.234;2023-03-13T09:44:24;96662.09;;;17.01;80.48
21980;BME280;11154;48.558;9.234;2023-03-13T09:46:32;96659.19;;;17.03;79.72
21980;BME280;11154;48.558;9.234;2023-03-13T09:48:40;96656.50;;;17.03;78.09
21980;BME280;11154;48.558;9.234;2023-03-13T09:50:46;96660.22;;;17.02;78.18
21980;BME280;11154;48.558;9.234;2023-03-13T09:52:58;96654.84;;;17.02;77.86
21980;BME280;11154;48.558;9.234;2023-03-13T09:55:09;96662.41;;;17.11;79.70
21980;BME280;11154;48.558;9.234;2023-03-13T09:57:19;96658.66;;;17.12;78.94
21980;BME280;11154;48.558;9.234;2023-03-13T09:59:28;96666.69;;;17.19;78.11
21980;BME280;11154;48.558;9.234;2023-03-13T10:01:32;96671.22;;;17.18;75.80
21980;BME280;11154;48.558;9.234;2023-03-13T10:03:38;96662.34;;;17.18;74.77
21980;BME280;11154;48.558;9.234;2023-03-13T10:05:46;96670.41;;;17.18;74.24
21980;BME280;11154;48.558;9.234;2023-03-13T10:07:49;96663.53;;;17.22;75.23
21980;BME280;11154;48.558;9.234;2023-03-13T10:09:51;96655.84;;;17.25;74.69
21980;BME280;11154;48.558;9.234;2023-03-13T10:11:59;96668.25;;;17.26;74.01
21980;BME280;11154;48.558;9.234;2023-03-13T10:14:09;96657.91;;;17.30;74.47
21980;BME280;11154;48.558;9.234;2023-03-13T10:16:17;96660.34;;;17.31;72.73
21980;BME280;11154;48.558;9.234;2023-03-13T10:18:23;96659.47;;;17.37;72.51
21980;BME280;11154;48.558;9.234;2023-03-13T10:20:26;96658.41;;;17.38;71.75
21980;BME280;11154;48.558;9.234;2023-03-13T10:22:29;96653.66;;;17.40;70.44
21980;BME280;11154;48.558;9.234;2023-03-13T10:24:35;96655.88;;;17.43;70.76
21980;BME280;11154;48.558;9.234;2023-03-13T10:26:38;96638.63;;;17.50;70.43
21980;BME280;11154;48.558;9.234;2023-03-13T10:28:40;96648.25;;;17.58;70.39
21980;BME280;11154;48.558;9.234;2023-03-13T10:30:45;96639.50;;;17.62;69.71
21980;BME280;11154;48.558;9.234;2023-03-13T10:32:47;96631.34;;;17.69;68.79
21980;BME280;11154;48.558;9.234;2023-03-13T10:34:54;96634.78;;;17.76;68.31
21980;BME280;11154;48.558;9.234;2023-03-13T10:36:58;96625.34;;;17.85;68.16
21980;BME280;11154;48.558;9.234;2023-03-13T10:39:00;96621.97;;;17.89;66.78
21980;BME280;11154;48.558;9.234;2023-03-13T10:41:07;96616.50;;;17.96;67.40
21980;BME280;11154;48.558;9.234;2023-03-13T10:43:19;96607.44;;;18.08;68.98
21980;BME280;11154;48.558;9.234;2023-03-13T10:45:22;96607.53;;;18.13;66.80
21980;BME280;11154;48.558;9.234;2023-03-13T10:47:24;96602.97;;;18.13;65.15
21980;BME280;11154;48.558;9.234;2023-03-13T10:49:26;96607.31;;;18.14;67.14
21980;BME280;11154;48.558;9.234;2023-03-13T10:51:35;96609.56;;;18.17;66.61